Capitol Logistics 3259


KMIA
Miami International Airport
Miami, Florida, US
KPBI
Palm Beach International Airport
West Palm Beach, Florida, US

Activity Log

Date Flight Route Aircraft Duration
09/13/2019 CPX659 FLL V3 PBI SF34 0h 25m
04/03/2019 CPX659 GPS RNAV DTK SF34 0h 31m
03/08/2019 CPX659 FLL V3 PBI SF34 0h 33m

Route Details

Aircraft Information
Primary: Saab 340AF
Backup: Not Available
Route Data
Distance: 54nm
Sched. Duration: 0h 35m
Avg. Duration: 0h 29m (-5m)
Times Flown: 3
Recm'd Route: FLL V3 PBI
Planned Altitude: 3,000ft
Origin Wx: KMIA 271653Z 10016G20KT 10SM SCT029 SCT250 32/23 A3006 RMK AO2 SLP179 T03170228
Dest. Wx: KPBI 271653Z 09013KT 10SM SCT021 28/22 A3009 RMK AO2 SLP188 T02780222
Notes:

Financial History
Total Freight: 14,025lbs
Average Load: 4,675lbs/flt
Fuel Used: 1,213lbs
Avg. Fuel Used: 404lbs/flt
Fuel Expense: $1,492
Avg. Fuel Expense: $497
Avg. Fuel Cost: $1.23/lbs
Total Gross Income: $15,708
Pilot Pay: $447
Total Expenses: $1,852
Total Revenue: $12,070
Average Revenue: $5,236.00